createdAt,value
2023-04-01T00:01:04.159Z,11.55
2023-04-01T00:03:32.097Z,11.54
2023-04-01T00:05:59.796Z,11.56
2023-04-01T00:08:27.426Z,11.56
2023-04-01T00:10:54.195Z,11.51
2023-04-01T00:13:21.313Z,11.50
2023-04-01T00:15:47.779Z,11.46
2023-04-01T00:18:15.139Z,11.39
2023-04-01T00:20:51.397Z,11.34
2023-04-01T00:23:19.668Z,11.35
2023-04-01T00:25:48.065Z,11.54
2023-04-01T00:28:16.253Z,11.67
2023-04-01T00:30:42.394Z,11.71
2023-04-01T00:33:08.888Z,11.75
2023-04-01T00:35:35.682Z,11.60
2023-04-01T00:38:02.180Z,11.70
2023-04-01T00:40:30.289Z,11.69
2023-04-01T00:42:56.971Z,11.45
2023-04-01T00:45:43.571Z,12.37
2023-04-01T00:48:31.496Z,13.17
2023-04-01T00:51:00.600Z,13.26
2023-04-01T00:53:28.915Z,13.02
2023-04-01T00:56:04.848Z,12.89
2023-04-01T00:58:35.763Z,12.75
2023-04-01T01:01:02.202Z,13.17
2023-04-01T01:03:29.133Z,12.70
2023-04-01T01:06:43.629Z,12.63
2023-04-01T01:09:31.446Z,12.64
2023-04-01T01:12:13.497Z,12.63
2023-04-01T01:14:53.167Z,12.59
2023-04-01T01:17:53.426Z,12.67
2023-04-01T01:20:47.494Z,12.61
2023-04-01T01:23:35.395Z,12.56
2023-04-01T01:26:26.221Z,12.60
2023-04-01T01:29:05.078Z,12.57
2023-04-01T01:31:37.385Z,12.56
2023-04-01T01:34:33.321Z,12.55
2023-04-01T01:37:03.543Z,12.56
2023-04-01T01:39:33.738Z,12.51
2023-04-01T01:42:05.079Z,12.52
2023-04-01T01:44:34.880Z,12.51
2023-04-01T01:47:02.655Z,12.52
2023-04-01T01:49:32.408Z,12.57
2023-04-01T01:51:58.956Z,12.62
2023-04-01T01:54:25.063Z,12.67
2023-04-01T01:56:59.770Z,12.72
2023-04-01T01:59:27.333Z,12.73
2023-04-01T02:01:56.757Z,12.72
2023-04-01T02:04:23.854Z,12.72
2023-04-01T02:07:00.932Z,12.75
2023-04-01T02:09:27.172Z,12.77
2023-04-01T02:11:59.611Z,12.70
2023-04-01T02:14:37.536Z,12.78
2023-04-01T02:17:15.313Z,12.78
2023-04-01T02:19:48.137Z,12.73
2023-04-01T02:22:19.161Z,12.70
2023-04-01T02:24:46.503Z,12.67
2023-04-01T02:27:13.042Z,12.73
2023-04-01T02:29:39.551Z,12.67
2023-04-01T02:32:09.676Z,12.68
2023-04-01T02:34:37.261Z,12.69
2023-04-01T02:37:03.847Z,12.78
2023-04-01T02:39:29.977Z,12.74
2023-04-01T02:41:56.304Z,12.74
2023-04-01T02:44:22.710Z,12.75
2023-04-01T02:46:49.135Z,12.76
2023-04-01T02:49:15.546Z,12.61
2023-04-01T02:51:41.930Z,12.67
2023-04-01T02:54:09.129Z,12.65
2023-04-01T02:56:35.819Z,12.55
2023-04-01T02:59:02.238Z,12.52
2023-04-01T03:01:28.770Z,12.49
2023-04-01T03:03:54.869Z,12.48
2023-04-01T03:06:21.588Z,12.49
2023-04-01T03:08:47.778Z,12.49
2023-04-01T03:11:14.535Z,12.52
2023-04-01T03:13:41.148Z,12.43
2023-04-01T03:16:07.600Z,12.49
2023-04-01T03:18:35.140Z,12.41
2023-04-01T03:21:20.484Z,12.30
2023-04-01T03:23:46.649Z,12.24
2023-04-01T03:26:13.802Z,12.18
2023-04-01T03:28:39.890Z,12.27
2023-04-01T03:31:06.479Z,12.15
2023-04-01T03:33:40.167Z,12.09
2023-04-01T03:36:06.671Z,12.17
2023-04-01T03:38:34.245Z,12.18
2023-04-01T03:41:00.775Z,12.19
2023-04-01T03:43:27.248Z,12.21
2023-04-01T03:45:55.115Z,12.11
2023-04-01T03:48:21.312Z,12.17
2023-04-01T03:50:48.923Z,12.11
2023-04-01T03:53:15.611Z,12.20
2023-04-01T03:55:44.715Z,12.07
2023-04-01T03:58:10.979Z,11.97
2023-04-01T04:00:37.467Z,12.01
2023-04-01T04:03:03.843Z,12.07
2023-04-01T04:05:34.170Z,12.05
2023-04-01T04:08:00.580Z,12.13
2023-04-01T04:10:27.202Z,12.08
2023-04-01T04:12:53.343Z,12.06
2023-04-01T04:15:23.258Z,12.11
2023-04-01T04:17:49.400Z,12.09
2023-04-01T04:20:15.785Z,12.18
2023-04-01T04:22:42.223Z,12.18
2023-04-01T04:25:09.197Z,12.13
2023-04-01T04:27:36.280Z,12.19
2023-04-01T04:30:08.620Z,12.25
2023-04-01T04:32:35.991Z,12.26
2023-04-01T04:35:03.316Z,12.28
2023-04-01T04:37:29.866Z,12.34
2023-04-01T04:39:56.510Z,12.37
2023-04-01T04:42:23.004Z,12.42
2023-04-01T04:44:53.912Z,12.36
2023-04-01T04:47:20.536Z,12.35
2023-04-01T04:49:47.155Z,12.46
2023-04-01T04:52:13.505Z,12.44
2023-04-01T04:54:40.279Z,12.44
2023-04-01T04:57:06.753Z,12.44
2023-04-01T04:59:41.263Z,12.52
2023-04-01T05:02:19.409Z,12.47
2023-04-01T05:04:47.409Z,12.48
2023-04-01T05:07:14.520Z,12.56
2023-04-01T05:09:41.200Z,12.57
2023-04-01T05:12:07.817Z,12.61
2023-04-01T05:14:54.769Z,12.64
2023-04-01T05:17:21.215Z,12.68
2023-04-01T05:19:47.608Z,12.66
2023-04-01T05:22:14.059Z,12.72
2023-04-01T05:24:41.187Z,12.71
2023-04-01T05:27:07.255Z,12.79
2023-04-01T05:29:37.433Z,12.73
2023-04-01T05:32:07.259Z,12.73
2023-04-01T05:34:34.831Z,12.79
2023-04-01T05:37:01.055Z,12.76
2023-04-01T05:39:27.653Z,12.81
2023-04-01T05:41:54.100Z,12.87
2023-04-01T05:44:20.653Z,12.88
2023-04-01T05:47:03.941Z,12.99
2023-04-01T05:49:31.467Z,12.98
2023-04-01T05:51:57.739Z,13.04
2023-04-01T05:54:24.098Z,12.99
2023-04-01T05:56:50.358Z,12.90
2023-04-01T05:59:17.804Z,13.01
2023-04-01T06:01:44.230Z,12.98
2023-04-01T06:04:18.491Z,12.98
2023-04-01T06:06:46.325Z,12.94
2023-04-01T06:09:27.094Z,12.92
2023-04-01T06:12:16.666Z,12.87
2023-04-01T06:15:09.552Z,12.93
2023-04-01T06:18:02.806Z,12.79
2023-04-01T06:20:49.010Z,12.76
2023-04-01T06:23:40.241Z,12.82
2023-04-01T06:26:11.772Z,12.46
2023-04-01T06:28:56.057Z,12.28
2023-04-01T06:31:42.633Z,12.31
2023-04-01T06:34:36.696Z,12.37
2023-04-01T06:37:22.808Z,12.08
2023-04-01T06:40:10.657Z,12.00
2023-04-01T06:42:43.624Z,12.09
2023-04-01T06:45:46.123Z,12.18
2023-04-01T06:49:33.919Z,12.15
2023-04-01T06:53:11.789Z,12.09
2023-04-01T06:56:04.921Z,12.20
2023-04-01T06:59:03.352Z,12.32
2023-04-01T07:01:41.724Z,12.52
2023-04-01T07:04:30.645Z,12.38
2023-04-01T07:07:00.900Z,12.42
2023-04-01T07:09:39.189Z,12.33
2023-04-01T07:12:50.108Z,12.40
2023-04-01T07:15:40.179Z,12.46
2023-04-01T07:18:18.233Z,12.67
2023-04-01T07:20:46.200Z,12.55
2023-04-01T07:23:25.462Z,12.36
2023-04-01T07:26:23.335Z,12.51
2023-04-01T07:29:13.649Z,12.55
2023-04-01T07:31:46.357Z,12.78
2023-04-01T07:34:28.645Z,12.85
2023-04-01T07:37:18.299Z,13.03
2023-04-01T07:40:00.360Z,12.97
2023-04-01T07:42:42.227Z,13.13
2023-04-01T07:45:21.939Z,12.88
2023-04-01T07:48:00.763Z,12.92
2023-04-01T07:50:36.317Z,12.99
2023-04-01T07:53:16.555Z,13.19
2023-04-01T07:55:50.932Z,13.43
2023-04-01T07:58:39.820Z,13.25
2023-04-01T08:01:19.613Z,13.33
2023-04-01T08:04:31.619Z,13.44
2023-04-01T08:07:17.473Z,13.30
2023-04-01T08:10:25.230Z,13.25
2023-04-01T08:13:29.768Z,13.15
2023-04-01T08:16:44.620Z,13.22
2023-04-01T08:19:39.664Z,12.93
2023-04-01T08:22:18.086Z,12.89
2023-04-01T08:24:48.266Z,12.83
2023-04-01T08:27:47.135Z,12.96
2023-04-01T08:30:19.748Z,12.85
2023-04-01T08:33:22.640Z,12.84
2023-04-01T08:36:03.661Z,13.09
2023-04-01T08:38:49.345Z,13.22
2023-04-01T08:41:40.600Z,13.06
2023-04-01T08:45:16.064Z,13.20
2023-04-01T08:48:11.439Z,13.34
2023-04-01T08:51:16.450Z,13.35
2023-04-01T08:54:11.767Z,13.59
2023-04-01T08:57:08.254Z,13.59
2023-04-01T09:00:01.376Z,13.75
2023-04-01T09:03:09.561Z,13.52
2023-04-01T09:05:38.799Z,13.60
2023-04-01T09:08:26.770Z,13.96
2023-04-01T09:11:12.056Z,13.72
2023-04-01T09:14:35.202Z,13.70
2023-04-01T09:17:49.772Z,13.82
2023-04-01T09:20:25.288Z,13.74
2023-04-01T09:23:49.091Z,13.79
2023-04-01T09:26:34.135Z,13.88
2023-04-01T09:29:32.937Z,13.94
2023-04-01T09:32:27.276Z,13.90
2023-04-01T09:35:25.029Z,13.81
2023-04-01T09:38:00.193Z,14.11
2023-04-01T09:40:54.221Z,14.14
2023-04-01T09:43:48.204Z,14.16
2023-04-01T09:46:27.419Z,14.22
2023-04-01T09:49:16.557Z,14.07
2023-04-01T09:52:01.296Z,13.73
2023-04-01T09:54:44.425Z,13.59
2023-04-01T09:57:30.021Z,13.68
2023-04-01T10:00:46.762Z,13.72
2023-04-01T10:03:38.163Z,13.69
2023-04-01T10:06:38.467Z,13.72
2023-04-01T10:09:36.656Z,13.89
2023-04-01T10:12:11.956Z,14.24
2023-04-01T10:14:54.143Z,14.42
2023-04-01T10:17:40.550Z,13.98
2023-04-01T10:20:46.528Z,13.91
2023-04-01T10:23:35.794Z,13.80
2023-04-01T10:26:24.672Z,13.66
2023-04-01T10:29:31.497Z,13.53
2023-04-01T10:32:20.499Z,13.58
2023-04-01T10:35:08.241Z,13.80
2023-04-01T10:37:53.433Z,13.93
2023-04-01T10:40:45.858Z,13.87
2023-04-01T10:43:47.740Z,14.12
2023-04-01T10:46:53.178Z,13.96
2023-04-01T10:49:45.391Z,13.97
2023-04-01T10:52:39.716Z,13.91
2023-04-01T10:56:15.871Z,13.74
2023-04-01T10:59:42.152Z,14.01
2023-04-01T11:03:08.616Z,13.88
2023-04-01T11:06:23.617Z,13.88
2023-04-01T11:09:26.340Z,13.77
2023-04-01T11:12:17.174Z,13.50
2023-04-01T11:14:58.279Z,13.26
2023-04-01T11:17:28.176Z,13.31
2023-04-01T11:19:58.131Z,13.08
2023-04-01T11:22:43.699Z,13.07
2023-04-01T11:25:35.282Z,13.17
2023-04-01T11:28:35.790Z,12.84
2023-04-01T11:31:22.378Z,13.04
2023-04-01T11:33:48.918Z,12.90
2023-04-01T11:36:22.496Z,13.01
2023-04-01T11:39:01.901Z,12.99
2023-04-01T11:42:11.434Z,13.26
2023-04-01T11:45:16.745Z,13.45
2023-04-01T11:48:04.175Z,13.64
2023-04-01T11:50:43.593Z,13.51
2023-04-01T11:53:17.769Z,13.92
2023-04-01T11:55:55.943Z,13.80
2023-04-01T11:58:53.311Z,13.90
2023-04-01T12:01:33.510Z,14.11
2023-04-01T12:04:38.079Z,13.68
2023-04-01T12:07:13.433Z,13.32
2023-04-01T12:10:05.118Z,13.24
2023-04-01T12:13:01.673Z,13.26
2023-04-01T12:15:28.738Z,12.92
2023-04-01T12:18:25.828Z,12.81
2023-04-01T12:21:01.012Z,12.84
2023-04-01T12:23:47.829Z,12.63
2023-04-01T12:26:52.522Z,12.59
2023-04-01T12:29:42.655Z,12.50
2023-04-01T12:32:35.092Z,12.30
2023-04-01T12:35:07.161Z,12.30
2023-04-01T12:37:47.383Z,12.42
2023-04-01T12:40:51.680Z,12.51
2023-04-01T12:43:29.818Z,12.63
2023-04-01T12:46:21.479Z,12.52
2023-04-01T12:49:15.925Z,12.73
2023-04-01T12:52:05.404Z,12.66
2023-04-01T12:54:38.444Z,12.78
2023-04-01T12:57:35.307Z,12.98
2023-04-01T13:00:33.105Z,12.81
2023-04-01T13:03:20.892Z,12.86
2023-04-01T13:06:25.635Z,12.76
2023-04-01T13:08:59.417Z,12.88
2023-04-01T13:11:44.209Z,12.97
2023-04-01T13:14:31.866Z,12.90
2023-04-01T13:17:23.807Z,12.79
2023-04-01T13:20:05.592Z,12.47
2023-04-01T13:22:57.029Z,12.23
2023-04-01T13:25:45.479Z,12.22
2023-04-01T13:28:34.146Z,12.24
2023-04-01T13:31:25.522Z,12.19
2023-04-01T13:34:16.998Z,12.08
2023-04-01T13:36:52.398Z,12.03
2023-04-01T13:39:22.946Z,11.92
2023-04-01T13:42:11.753Z,11.86
2023-04-01T13:45:19.551Z,11.83
2023-04-01T13:48:04.683Z,11.79
2023-04-01T13:50:56.191Z,11.65
2023-04-01T13:53:36.185Z,11.70
2023-04-01T13:56:09.226Z,11.66
2023-04-01T13:58:39.554Z,11.68
2023-04-01T14:01:24.793Z,11.95
2023-04-01T14:04:30.270Z,12.06
2023-04-01T14:07:19.705Z,12.06
2023-04-01T14:09:53.276Z,12.09
2023-04-01T14:12:40.511Z,12.11
2023-04-01T14:15:21.741Z,11.94
2023-04-01T14:17:57.586Z,11.84
2023-04-01T14:21:14.283Z,11.98
2023-04-01T14:24:22.069Z,11.84
2023-04-01T14:27:19.837Z,11.91
2023-04-01T14:30:01.958Z,11.99
2023-04-01T14:32:34.698Z,12.02
2023-04-01T14:35:19.961Z,12.01
2023-04-01T14:37:48.983Z,12.08
2023-04-01T14:40:21.381Z,11.96
2023-04-01T14:43:06.574Z,12.00
2023-04-01T14:46:01.106Z,11.98
2023-04-01T14:48:35.791Z,11.89
2023-04-01T14:51:29.339Z,11.88
2023-04-01T14:54:12.422Z,12.08
2023-04-01T14:56:42.490Z,12.09
2023-04-01T14:59:26.211Z,11.98
2023-04-01T15:02:18.720Z,11.95
2023-04-01T15:04:48.442Z,11.76
2023-04-01T15:07:30.984Z,11.78
2023-04-01T15:10:23.623Z,11.61
2023-04-01T15:13:05.538Z,11.45
2023-04-01T15:15:40.960Z,11.62
2023-04-01T15:18:26.300Z,11.77
2023-04-01T15:21:28.014Z,11.70
2023-04-01T15:24:03.701Z,11.53
2023-04-01T15:26:54.840Z,11.46
2023-04-01T15:29:40.812Z,11.38
2023-04-01T15:32:29.159Z,11.36
2023-04-01T15:35:19.989Z,11.23
2023-04-01T15:37:57.223Z,10.97
2023-04-01T15:40:35.564Z,11.21
2023-04-01T15:43:27.931Z,11.08
2023-04-01T15:45:59.708Z,11.12
2023-04-01T15:48:33.133Z,11.23
2023-04-01T15:51:23.504Z,11.43
2023-04-01T15:54:27.361Z,11.26
2023-04-01T15:57:20.896Z,11.32
2023-04-01T16:00:26.988Z,11.38
2023-04-01T16:03:09.170Z,11.34
2023-04-01T16:05:47.669Z,11.08
2023-04-01T16:08:23.660Z,10.95
2023-04-01T16:11:04.967Z,10.97
2023-04-01T16:13:43.350Z,10.88
2023-04-01T16:16:15.793Z,10.98
2023-04-01T16:19:01.133Z,10.98
2023-04-01T16:21:45.182Z,11.06
2023-04-01T16:24:21.005Z,11.10
2023-04-01T16:27:19.511Z,11.08
2023-04-01T16:29:51.461Z,11.00
2023-04-01T16:32:44.817Z,11.00
2023-04-01T16:35:28.357Z,10.88
2023-04-01T16:38:04.898Z,10.81
2023-04-01T16:40:46.585Z,10.70
2023-04-01T16:43:27.249Z,10.74
2023-04-01T16:46:00.401Z,10.82
2023-04-01T16:49:08.324Z,10.70
2023-04-01T16:52:06.276Z,10.63
2023-04-01T16:54:58.507Z,10.57
2023-04-01T16:57:58.767Z,10.53
2023-04-01T17:00:40.600Z,10.60
2023-04-01T17:03:07.311Z,10.48
2023-04-01T17:05:42.405Z,10.59
2023-04-01T17:08:38.426Z,10.59
2023-04-01T17:11:17.758Z,10.61
2023-04-01T17:13:58.502Z,10.72
2023-04-01T17:16:38.174Z,10.69
2023-04-01T17:19:26.436Z,10.71
2023-04-01T17:22:05.309Z,10.84
2023-04-01T17:24:37.677Z,10.84
2023-04-01T17:27:18.510Z,10.65
2023-04-01T17:30:13.990Z,10.40
2023-04-01T17:33:02.985Z,10.47
2023-04-01T17:35:39.798Z,10.26
2023-04-01T17:38:18.297Z,10.35
2023-04-01T17:40:57.997Z,10.28
2023-04-01T17:43:39.833Z,10.19
2023-04-01T17:46:37.872Z,10.14
2023-04-01T17:49:13.436Z,10.14
2023-04-01T17:51:53.998Z,10.18
2023-04-01T17:54:38.909Z,10.12
2023-04-01T17:57:28.538Z,10.14
2023-04-01T18:00:15.503Z,10.12
2023-04-01T18:02:51.081Z,10.18
2023-04-01T18:05:41.702Z,10.11
2023-04-01T18:08:40.369Z,9.83
2023-04-01T18:11:12.558Z,9.82
2023-04-01T18:13:50.116Z,9.75
2023-04-01T18:16:38.680Z,9.38
2023-04-01T18:19:13.667Z,9.62
2023-04-01T18:21:42.930Z,9.51
2023-04-01T18:24:40.226Z,9.49
2023-04-01T18:27:09.525Z,9.91
2023-04-01T18:29:59.738Z,9.27
2023-04-01T18:32:36.316Z,9.20
2023-04-01T18:35:35.307Z,9.18
2023-04-01T18:38:06.755Z,9.05
2023-04-01T18:40:38.419Z,9.22
2023-04-01T18:43:21.425Z,8.98
2023-04-01T18:46:31.380Z,9.17
2023-04-01T18:49:17.130Z,9.11
2023-04-01T18:52:08.170Z,9.03
2023-04-01T18:54:46.509Z,8.91
2023-04-01T18:57:15.805Z,8.87
2023-04-01T18:59:47.235Z,8.96
2023-04-01T19:02:31.470Z,8.89
2023-04-01T19:05:19.652Z,9.00
2023-04-01T19:07:48.310Z,8.98
2023-04-01T19:10:36.672Z,8.93
2023-04-01T19:13:06.173Z,8.78
2023-04-01T19:15:38.486Z,8.94
2023-04-01T19:18:45.673Z,8.87
2023-04-01T19:21:34.180Z,8.91
2023-04-01T19:24:21.093Z,8.95
2023-04-01T19:26:59.529Z,8.99
2023-04-01T19:29:32.032Z,9.03
2023-04-01T19:32:14.235Z,9.04
2023-04-01T19:34:48.607Z,8.87
2023-04-01T19:37:36.837Z,8.73
2023-04-01T19:40:28.257Z,8.68
2023-04-01T19:43:30.113Z,8.64
2023-04-01T19:46:14.456Z,8.69
2023-04-01T19:49:00.074Z,8.64
2023-04-01T19:51:46.130Z,8.63
2023-04-01T19:54:35.924Z,8.64
2023-04-01T19:57:24.141Z,8.45
2023-04-01T20:00:13.812Z,8.39
2023-04-01T20:03:02.544Z,8.33
2023-04-01T20:05:40.518Z,8.35
2023-04-01T20:08:27.175Z,8.23
2023-04-01T20:11:03.430Z,8.30
2023-04-01T20:13:40.842Z,8.38
2023-04-01T20:16:09.065Z,8.42
2023-04-01T20:18:59.495Z,8.35
2023-04-01T20:21:48.186Z,8.43
2023-04-01T20:24:14.983Z,8.51
2023-04-01T20:26:46.239Z,8.57
2023-04-01T20:29:37.149Z,8.67
2023-04-01T20:32:12.144Z,8.46
2023-04-01T20:35:00.512Z,8.25
2023-04-01T20:38:11.428Z,8.06
2023-04-01T20:40:47.277Z,7.97
2023-04-01T20:43:47.942Z,7.84
2023-04-01T20:46:22.810Z,7.87
2023-04-01T20:49:11.143Z,7.92
2023-04-01T20:51:53.506Z,7.73
2023-04-01T20:54:38.718Z,7.67
2023-04-01T20:57:28.549Z,7.97
2023-04-01T21:00:20.077Z,8.02
2023-04-01T21:03:12.432Z,7.88
2023-04-01T21:06:03.546Z,7.94
2023-04-01T21:08:41.319Z,7.99
2023-04-01T21:11:28.393Z,7.93
2023-04-01T21:14:34.514Z,7.91
2023-04-01T21:17:19.536Z,7.88
2023-04-01T21:20:04.830Z,7.84
2023-04-01T21:22:43.812Z,7.75
2023-04-01T21:25:29.610Z,7.79
2023-04-01T21:28:25.286Z,7.71
2023-04-01T21:31:01.056Z,7.69
2023-04-01T21:33:33.649Z,7.57
2023-04-01T21:36:09.380Z,7.46
2023-04-01T21:38:44.466Z,7.45
2023-04-01T21:41:40.395Z,7.61
2023-04-01T21:44:14.481Z,7.63
2023-04-01T21:47:08.672Z,7.52
2023-04-01T21:50:04.596Z,7.66
2023-04-01T21:52:55.790Z,7.36
2023-04-01T21:55:52.419Z,7.31
2023-04-01T21:58:41.214Z,7.39
2023-04-01T22:01:35.475Z,7.09
2023-04-01T22:04:30.715Z,7.07
2023-04-01T22:07:02.506Z,7.06
2023-04-01T22:09:40.114Z,7.02
2023-04-01T22:12:19.631Z,7.03
2023-04-01T22:15:12.728Z,7.20
2023-04-01T22:17:53.731Z,7.36
2023-04-01T22:20:32.560Z,7.41
2023-04-01T22:23:15.193Z,7.52
2023-04-01T22:25:51.151Z,7.22
2023-04-01T22:28:28.362Z,7.36
2023-04-01T22:31:03.589Z,7.31
2023-04-01T22:33:30.066Z,7.28
2023-04-01T22:36:18.044Z,7.17
2023-04-01T22:38:57.937Z,7.11
2023-04-01T22:41:34.310Z,6.98
2023-04-01T22:44:00.789Z,6.97
2023-04-01T22:46:36.324Z,7.07
2023-04-01T22:49:05.088Z,7.48
2023-04-01T22:51:45.387Z,7.27
2023-04-01T22:54:35.433Z,7.24
2023-04-01T22:57:12.312Z,7.20
2023-04-01T22:59:52.181Z,6.99
2023-04-01T23:02:28.825Z,6.10
2023-04-01T23:05:05.557Z,5.94
2023-04-01T23:07:49.368Z,5.87
2023-04-01T23:10:24.017Z,5.89
2023-04-01T23:12:54.186Z,5.80
2023-04-01T23:15:21.449Z,5.83
2023-04-01T23:17:55.778Z,5.73
2023-04-01T23:20:46.506Z,5.70
2023-04-01T23:23:21.536Z,5.67
2023-04-01T23:26:10.470Z,5.67
2023-04-01T23:28:41.416Z,5.73
2023-04-01T23:31:30.510Z,5.68
2023-04-01T23:34:00.371Z,5.56
2023-04-01T23:36:27.775Z,5.57
2023-04-01T23:38:54.640Z,5.56
2023-04-01T23:41:28.220Z,5.51
2023-04-01T23:44:01.229Z,5.42
2023-04-01T23:46:30.668Z,5.45
2023-04-01T23:48:57.321Z,5.36
2023-04-01T23:51:27.405Z,5.39
2023-04-01T23:54:02.421Z,5.41
2023-04-01T23:56:39.011Z,5.39
2023-04-01T23:59:05.419Z,5.47
